Eleva, Wisconsin
Current Conditions -  °F | °C
As of 3:31 AM on Thursday 18 Dec 2014 (Local Time) from KEAU Reporting Station
Overcast Overcast  
Wind Chill: 21°   Ceiling: 1500
Heat Index: 21°   Visibility: 10mi
Dew Point: 16°   Wind: 3mph
Humidity: 81%   Direction: 280°W
Pressure: 30.3"   Gusts: NA
Location:  44.58°N, 91.47°W
Report Text: KEAU 180931Z AUTO 28003KT 10SM OVC015 M06/M09 A3030 RMK AO2 T10611089
Loading
Personal Weather Stations






























Interactive Weather Map New forecast layout! Learn more

10-Day Weather Forecast

Advertisements
Track Severe Weather on mobile